Time;durP1;ratioP1;P1;durP2;ratioP2;P2;SDS_P1;SDS_P2;PMS_P1;PMS_P2;Temp;Humidity;BMP_temperature;BMP_pressure;BME280_temperature;BME280_humidity;BME280_pressure;Samples;Min_cycle;Max_cycle;Signal;HPM_P1;HPM_P2
2021/09/18 00:01:22;;;;;;;11.93;8.43;;;;;;;19.82;100.00;95921.53;5031869;28;20205;-78
2021/09/18 00:03:49;;;;;;;12.93;7.97;;;;;;;19.78;100.00;95911.50;5032322;28;20198;-78
2021/09/18 00:06:16;;;;;;;15.30;7.83;;;;;;;19.80;100.00;95914.78;5032128;28;20302;-77
2021/09/18 00:08:43;;;;;;;10.50;7.83;;;;;;;19.68;100.00;95907.53;5031997;28;20198;-78
2021/09/18 00:11:11;;;;;;;12.33;7.53;;;;;;;19.68;100.00;95907.53;5032075;28;20289;-77
2021/09/18 00:13:38;;;;;;;11.90;7.70;;;;;;;19.78;100.00;95917.69;5032094;28;20230;-77
2021/09/18 00:16:07;;;;;;;9.73;6.87;;;;;;;19.82;100.00;95913.53;5032021;28;20666;-78
2021/09/18 00:18:34;;;;;;;13.40;6.97;;;;;;;19.93;100.00;95919.94;5031644;28;20289;-77
2021/09/18 00:21:02;;;;;;;11.30;6.53;;;;;;;20.00;100.00;95915.31;5032242;28;20249;-78
2021/09/18 00:23:30;;;;;;;13.43;6.43;;;;;;;20.08;100.00;95911.53;5031871;28;20222;-78
2021/09/18 00:25:57;;;;;;;12.77;7.93;;;;;;;20.14;100.00;95898.09;5032219;28;20698;-78
2021/09/18 00:28:25;;;;;;;11.83;6.43;;;;;;;20.19;100.00;95892.91;5031828;28;20205;-77
2021/09/18 00:30:52;;;;;;;14.07;6.80;;;;;;;20.13;100.00;95893.00;5031869;28;20237;-78
2021/09/18 00:33:21;;;;;;;14.90;6.57;;;;;;;20.11;100.00;95890.53;5031618;28;20191;-77
2021/09/18 00:35:48;;;;;;;11.07;6.90;;;;;;;20.18;100.00;95896.59;5031815;28;20751;-78
2021/09/18 00:38:15;;;;;;;11.27;7.70;;;;;;;20.23;100.00;95897.75;5031429;28;20286;-78
2021/09/18 00:40:43;;;;;;;15.57;7.97;;;;;;;20.17;100.00;95883.50;5031792;28;20198;-78
2021/09/18 00:43:11;;;;;;;16.40;7.93;;;;;;;20.24;100.00;95883.38;5031781;28;20313;-77
2021/09/18 00:45:38;;;;;;;11.93;8.10;;;;;;;20.12;100.00;95891.34;5031672;28;20253;-78
2021/09/18 00:48:06;;;;;;;12.77;7.70;;;;;;;20.06;100.00;95897.63;5031246;28;20205;-78
2021/09/18 00:50:34;;;;;;;9.43;7.00;;;;;;;20.11;100.00;95893.19;5031707;28;20737;-78
2021/09/18 00:53:02;;;;;;;12.63;7.93;;;;;;;20.02;100.00;95888.41;5031275;28;20230;-78
2021/09/18 00:55:32;;;;;;;15.40;7.67;;;;;;;20.18;100.00;95888.59;5031322;28;20205;-78
2021/09/18 00:57:59;;;;;;;16.13;7.20;;;;;;;20.23;100.00;95889.75;5031364;28;20611;-78
2021/09/18 01:00:26;;;;;;;15.40;7.17;;;;;;;19.83;100.00;95885.00;5031795;28;20286;-78
2021/09/18 01:02:53;;;;;;;14.23;6.63;;;;;;;19.77;100.00;95891.22;5031334;28;20317;-78
2021/09/18 01:05:21;;;;;;;9.27;6.43;;;;;;;19.87;100.00;95904.84;5031490;28;20198;-77
2021/09/18 01:07:52;;;;;;;12.83;6.43;;;;;;;20.03;100.00;95908.72;5031876;28;20198;-77
2021/09/18 01:10:19;;;;;;;19.20;7.00;;;;;;;20.14;100.00;95929.28;5035357;28;20179;-77
2021/09/18 01:13:04;;;;;;;15.30;5.63;;;;;;;20.14;100.00;95927.44;5035121;28;20752;-78
2021/09/18 01:15:33;;;;;;;15.97;6.30;;;;;;;20.27;100.00;95920.28;5035284;28;20183;-77
2021/09/18 01:18:02;;;;;;;17.57;6.17;;;;;;;20.35;100.00;95901.28;5034772;28;20238;-78
2021/09/18 01:20:30;;;;;;;14.37;5.53;;;;;;;20.41;100.00;95911.84;5035461;28;20277;-77
2021/09/18 01:22:59;;;;;;;13.10;5.87;;;;;;;20.34;100.00;95910.34;5034838;28;20229;-78
2021/09/18 01:25:30;;;;;;;12.77;5.20;;;;;;;20.32;100.00;95913.22;5035012;28;20199;-78
2021/09/18 01:27:58;;;;;;;11.23;5.50;;;;;;;20.35;100.00;95911.94;5034680;28;20183;-78
2021/09/18 01:30:27;;;;;;;11.63;5.23;;;;;;;20.35;100.00;95903.94;5034943;28;20202;-77
2021/09/18 01:32:55;;;;;;;11.23;5.20;;;;;;;20.40;100.00;95906.72;5034812;28;20199;-78
2021/09/18 01:35:23;;;;;;;12.77;5.23;;;;;;;20.35;100.00;95902.09;5034837;28;20694;-78
2021/09/18 01:37:50;;;;;;;16.60;6.37;;;;;;;20.33;100.00;95898.84;5034459;28;20209;-78
2021/09/18 01:40:21;;;;;;;9.80;5.43;;;;;;;20.28;100.00;95901.38;5035083;28;20687;-78
2021/09/18 01:42:50;;;;;;;15.23;4.87;;;;;;;20.23;100.00;95887.91;5034588;28;20214;-78
2021/09/18 01:45:17;;;;;;;11.33;5.63;;;;;;;20.33;100.00;95887.34;5034429;28;20679;-78
2021/09/18 01:47:46;;;;;;;15.37;5.17;;;;;;;20.32;100.00;95883.84;5034776;28;20225;-78
2021/09/18 01:50:25;;;;;;;14.60;6.17;;;;;;;20.46;100.00;95873.78;5034626;28;20208;-78
2021/09/18 01:52:53;;;;;;;15.10;5.77;;;;;;;20.35;100.00;95879.91;5034174;28;20754;-78
2021/09/18 01:55:21;;;;;;;13.57;5.57;;;;;;;20.29;100.00;95892.31;5034300;28;20285;-77
2021/09/18 01:57:52;;;;;;;10.53;5.80;;;;;;;20.29;100.00;95880.84;5034598;28;20201;-78
2021/09/18 02:00:20;;;;;;;9.80;5.43;;;;;;;20.23;100.00;95877.25;5034416;28;20226;-78
2021/09/18 02:02:48;;;;;;;12.40;4.73;;;;;;;20.25;100.00;95880.47;5034545;28;20337;-78
2021/09/18 02:05:19;;;;;;;16.57;6.60;;;;;;;20.25;100.00;95871.66;5034426;28;20229;-77
2021/09/18 02:07:46;;;;;;;9.23;5.13;;;;;;;20.21;100.00;95873.97;5034176;28;20278;-78
2021/09/18 02:10:16;;;;;;;7.90;4.87;;;;;;;20.28;100.00;95879.22;5034329;28;20249;-77
2021/09/18 02:12:43;;;;;;;11.37;5.30;;;;;;;20.07;100.00;95868.03;5033964;28;20191;-78
2021/09/18 02:15:14;;;;;;;8.30;4.97;;;;;;;20.11;100.00;95869.19;5033894;28;20209;-77
2021/09/18 02:17:42;;;;;;;10.90;5.67;;;;;;;19.90;100.00;95867.03;5033839;28;20287;-78
2021/09/18 02:20:12;;;;;;;9.17;5.50;;;;;;;19.83;100.00;95861.81;5033766;28;20290;-78
2021/09/18 02:22:39;;;;;;;7.20;5.07;;;;;;;19.70;100.00;95862.78;5033650;28;20233;-78
2021/09/18 02:25:08;;;;;;;12.57;5.23;;;;;;;19.55;100.00;95858.88;5033694;28;20206;-78
2021/09/18 02:27:35;;;;;;;8.43;4.77;;;;;;;19.67;100.00;95851.75;5033704;28;20764;-78
2021/09/18 02:30:04;;;;;;;12.07;5.40;;;;;;;19.73;100.00;95850.88;5033872;28;20238;-78
2021/09/18 02:32:35;;;;;;;13.33;5.10;;;;;;;19.79;100.00;95852.63;5033897;28;20268;-78
2021/09/18 02:35:03;;;;;;;12.43;5.07;;;;;;;19.79;100.00;95849.16;5033580;28;20274;-78
2021/09/18 02:37:30;;;;;;;11.27;5.20;;;;;;;19.77;100.00;95843.22;5033565;28;20199;-78
2021/09/18 02:39:58;;;;;;;9.67;5.47;;;;;;;19.65;100.00;95860.00;5033620;28;20198;-77
2021/09/18 02:42:25;;;;;;;12.37;5.50;;;;;;;19.82;100.00;95868.19;5033681;28;20226;-78
2021/09/18 02:44:52;;;;;;;5.97;4.73;;;;;;;19.86;100.00;95863.22;5033452;28;20679;-78
2021/09/18 02:47:20;;;;;;;9.27;5.20;;;;;;;19.64;100.00;95868.19;5033589;28;20230;-78
2021/09/18 02:49:49;;;;;;;9.27;5.40;;;;;;;19.63;100.00;95866.59;5033350;28;20679;-78
2021/09/18 02:52:16;;;;;;;9.80;4.70;;;;;;;19.64;100.00;95868.19;5033109;28;20209;-78
2021/09/18 02:54:43;;;;;;;11.90;5.30;;;;;;;19.83;100.00;95874.31;5033084;28;20289;-78
2021/09/18 02:57:10;;;;;;;10.80;5.47;;;;;;;19.58;100.00;95875.22;5033287;28;20242;-78
2021/09/18 02:59:38;;;;;;;8.23;5.13;;;;;;;19.51;100.00;95868.38;5033057;28;20240;-78
2021/09/18 03:02:05;;;;;;;15.43;6.23;;;;;;;19.51;100.00;95876.38;5032859;28;20238;-78
2021/09/18 03:04:32;;;;;;;9.83;5.37;;;;;;;19.29;100.00;95870.66;5032977;28;20202;-78
2021/09/18 03:07:01;;;;;;;16.27;5.50;;;;;;;19.38;100.00;95866.66;5033522;28;20199;-77
2021/09/18 03:09:29;;;;;;;13.40;5.50;;;;;;;19.62;100.00;95872.94;5033238;28;20245;-78
2021/09/18 03:11:56;;;;;;;13.77;4.97;;;;;;;19.56;100.00;95871.97;5032822;28;20286;-77
2021/09/18 03:14:23;;;;;;;13.43;6.00;;;;;;;19.24;100.00;95864.16;5032753;28;20199;-78
2021/09/18 03:16:51;;;;;;;14.93;6.00;;;;;;;19.13;100.00;95854.25;5033209;28;20281;-77
2021/09/18 03:19:18;;;;;;;6.00;5.37;;;;;;;19.14;100.00;95850.53;5032713;28;20198;-77
2021/09/18 03:21:45;;;;;;;9.13;5.40;;;;;;;19.18;100.00;95849.06;5033126;28;20253;-77
2021/09/18 03:24:14;;;;;;;16.73;6.00;;;;;;;19.16;100.00;95861.81;5032351;28;20317;-78
2021/09/18 03:26:43;;;;;;;13.80;6.37;;;;;;;19.29;100.00;95868.81;5032790;28;20209;-78
2021/09/18 03:29:10;;;;;;;11.90;5.60;;;;;;;19.44;100.00;95860.44;5046316;28;20211;-78
2021/09/18 03:31:38;;;;;;;15.10;6.50;;;;;;;19.26;100.00;95877.28;5051764;28;20205;-78
2021/09/18 03:34:05;;;;;;;15.30;6.23;;;;;;;18.94;100.00;95884.56;5052253;28;20232;-78
2021/09/18 03:36:32;;;;;;;16.00;6.17;;;;;;;19.02;100.00;95886.94;5052427;28;20200;-78
2021/09/18 03:38:59;;;;;;;12.50;7.07;;;;;;;19.16;100.00;95872.47;5052418;28;20662;-78
2021/09/18 03:41:28;;;;;;;14.07;7.23;;;;;;;19.30;100.00;95869.66;5051967;28;20574;-78
2021/09/18 03:43:55;;;;;;;14.13;6.60;;;;;;;19.30;100.00;95857.13;5051627;28;20237;-78
2021/09/18 03:46:23;;;;;;;11.77;5.87;;;;;;;19.19;100.00;95847.22;5052676;28;20204;-78
2021/09/18 03:48:50;;;;;;;12.73;5.37;;;;;;;19.23;100.00;95846.56;5051764;28;20688;-78
2021/09/18 03:51:17;;;;;;;9.33;5.50;;;;;;;19.04;100.00;95841.44;5052099;28;20209;-78
2021/09/18 03:53:44;;;;;;;8.73;5.20;;;;;;;18.93;100.00;95824.34;5051799;28;20237;-78
2021/09/18 03:56:11;;;;;;;9.43;4.73;;;;;;;18.89;100.00;95817.84;5052080;28;20209;-78
2021/09/18 03:58:40;;;;;;;7.90;4.63;;;;;;;18.97;100.00;95823.69;5051577;28;20214;-78
2021/09/18 04:01:07;;;;;;;12.33;4.73;;;;;;;19.12;100.00;95822.50;5051935;28;20201;-78
2021/09/18 04:03:34;;;;;;;14.97;6.60;;;;;;;19.10;100.00;95816.59;5051672;28;20236;-79
2021/09/18 04:06:02;;;;;;;10.63;5.40;;;;;;;19.22;100.00;95801.47;5051909;28;20209;-79
2021/09/18 04:08:29;;;;;;;8.53;5.10;;;;;;;19.03;100.00;95790.03;5052061;28;20281;-80
2021/09/18 04:10:56;;;;;;;11.77;4.90;;;;;;;19.18;100.00;95790.44;5051458;28;20206;-80
2021/09/18 04:13:23;;;;;;;9.57;5.47;;;;;;;19.12;100.00;95780.72;5051628;28;20233;-81
2021/09/18 04:15:52;;;;;;;8.57;4.93;;;;;;;19.11;100.00;95776.41;5051659;28;20197;-80
2021/09/18 04:18:19;;;;;;;10.70;4.60;;;;;;;19.03;100.00;95776.72;5051827;28;20297;-80
2021/09/18 04:20:46;;;;;;;17.43;5.33;;;;;;;18.99;100.00;95778.19;5051691;28;20202;-80
2021/09/18 04:23:14;;;;;;;9.53;5.03;;;;;;;18.87;100.00;95771.97;5051400;28;20222;-80
2021/09/18 04:25:41;;;;;;;10.07;5.20;;;;;;;18.83;100.00;95765.47;5051559;28;20209;-80
2021/09/18 04:28:08;;;;;;;16.87;5.57;;;;;;;18.73;100.00;95753.50;5051312;28;20202;-80
2021/09/18 04:30:35;;;;;;;7.73;4.93;;;;;;;18.80;100.00;95758.75;5051610;28;20792;-80
2021/09/18 04:33:04;;;;;;;9.77;6.37;;;;;;;18.46;100.00;95760.94;5051773;28;20198;-80
2021/09/18 04:35:31;;;;;;;12.07;6.80;;;;;;;18.35;100.00;95760.84;5051712;28;20201;-80
2021/09/18 04:37:59;;;;;;;13.23;5.73;;;;;;;18.53;100.00;95756.34;5051158;28;20208;-80
2021/09/18 04:40:26;;;;;;;12.30;5.80;;;;;;;18.73;100.00;95748.16;5051823;28;20220;-80
2021/09/18 04:42:53;;;;;;;14.30;6.33;;;;;;;18.85;100.00;95752.78;5052300;28;20232;-80
2021/09/18 04:45:20;;;;;;;14.47;6.43;;;;;;;18.77;100.00;95751.19;5055789;28;20201;-79
2021/09/18 04:47:48;;;;;;;12.03;5.77;;;;;;;18.83;100.00;95765.47;5055177;28;20235;-80
2021/09/18 04:50:16;;;;;;;15.47;6.23;;;;;;;18.83;100.00;95776.13;5055843;28;20208;-79
2021/09/18 04:52:44;;;;;;;8.07;5.77;;;;;;;18.79;100.00;95788.25;5055400;28;20237;-79
2021/09/18 04:55:11;;;;;;;11.63;5.40;;;;;;;18.20;100.00;95795.75;5055215;28;20197;-79
2021/09/18 04:57:38;;;;;;;12.10;5.50;;;;;;;18.42;100.00;95799.63;5055236;28;20289;-79
2021/09/18 05:00:07;;;;;;;9.73;5.33;;;;;;;18.62;100.00;95799.44;5055891;28;20604;-80
2021/09/18 05:02:34;;;;;;;11.30;6.10;;;;;;;18.82;100.00;95804.59;5055336;28;20202;-80
2021/09/18 05:05:01;;;;;;;10.57;5.37;;;;;;;18.64;100.00;95804.56;5055263;28;20300;-79
2021/09/18 05:07:30;;;;;;;12.23;5.37;;;;;;;18.86;100.00;95807.63;5055015;28;20212;-79
2021/09/18 05:09:58;;;;;;;13.17;5.60;;;;;;;18.91;100.00;95805.94;5055371;28;20220;-79
2021/09/18 05:12:25;;;;;;;13.03;5.90;;;;;;;18.96;100.00;95802.59;5054938;28;20204;-80
2021/09/18 05:14:52;;;;;;;10.90;5.77;;;;;;;19.02;100.00;95804.38;5054996;28;20212;-79
2021/09/18 05:17:19;;;;;;;10.47;5.63;;;;;;;19.24;100.00;95808.19;5054937;28;20202;-78
2021/09/18 05:19:47;;;;;;;10.73;5.63;;;;;;;19.29;100.00;95806.72;5055046;28;20194;-79
2021/09/18 05:22:14;;;;;;;8.37;5.13;;;;;;;19.42;100.00;95815.34;5055150;28;20204;-78
2021/09/18 05:24:43;;;;;;;7.30;4.90;;;;;;;19.77;100.00;95809.38;5054881;28;20218;-79
2021/09/18 05:27:10;;;;;;;14.30;5.37;;;;;;;19.77;100.00;95800.56;5055358;28;20198;-79
2021/09/18 05:29:37;;;;;;;11.83;5.77;;;;;;;19.78;100.00;95807.50;5054590;28;20204;-79
2021/09/18 05:32:05;;;;;;;11.40;5.23;;;;;;;19.90;100.00;95806.50;5054749;28;20650;-79
2021/09/18 05:34:32;;;;;;;11.87;5.53;;;;;;;19.89;100.00;95801.41;5054580;28;20225;-78
2021/09/18 05:37:00;;;;;;;12.40;5.87;;;;;;;19.91;100.00;95797.47;5054689;28;20210;-79
2021/09/18 05:39:27;;;;;;;10.50;5.03;;;;;;;19.97;100.00;95797.59;5054385;28;20205;-79
2021/09/18 05:41:56;;;;;;;10.70;5.37;;;;;;;19.99;100.00;95798.19;5054569;28;20194;-79
2021/09/18 05:44:23;;;;;;;12.17;5.67;;;;;;;19.97;100.00;95793.06;5054180;28;20225;-79
2021/09/18 05:46:50;;;;;;;6.57;5.40;;;;;;;20.02;100.00;95795.88;5054962;28;20196;-78
2021/09/18 05:49:17;;;;;;;10.93;5.53;;;;;;;20.10;100.00;95798.22;5054287;28;20198;-79
2021/09/18 05:51:45;;;;;;;11.43;6.27;;;;;;;20.21;100.00;95793.94;5054836;28;20194;-78
2021/09/18 05:54:12;;;;;;;13.77;6.13;;;;;;;20.42;100.00;95787.22;5053444;28;20226;-78
2021/09/18 05:56:39;;;;;;;10.40;6.27;;;;;;;20.58;100.00;95770.53;5054389;28;20205;-78
2021/09/18 05:59:08;;;;;;;14.73;6.63;;;;;;;20.80;100.00;95780.59;5054472;28;20280;-79
2021/09/18 06:01:35;;;;;;;10.43;6.20;;;;;;;21.16;100.00;95802.69;5054320;28;20212;-78
2021/09/18 06:04:02;;;;;;;11.77;6.30;;;;;;;21.33;100.00;95785.69;5054184;28;20272;-79
2021/09/18 06:06:30;;;;;;;16.27;6.57;;;;;;;21.03;100.00;95796.59;5054544;28;20587;-78
2021/09/18 06:08:57;;;;;;;28.57;6.50;;;;;;;21.15;100.00;95804.56;5054022;28;20702;-79
2021/09/18 06:11:24;;;;;;;12.53;6.53;;;;;;;21.08;100.00;95809.22;5053886;28;20688;-78
2021/09/18 06:13:52;;;;;;;11.70;6.20;;;;;;;21.07;100.00;95823.66;5053862;28;20229;-78
2021/09/18 06:16:22;;;;;;;7.97;5.93;;;;;;;21.18;100.00;95827.34;5054170;28;20759;-78
2021/09/18 06:18:50;;;;;;;16.43;6.13;;;;;;;21.40;100.00;95839.03;5053729;28;20198;-79
2021/09/18 06:21:18;;;;;;;13.60;6.33;;;;;;;21.40;100.00;95854.28;5053993;28;20577;-78
2021/09/18 06:23:46;;;;;;;15.53;5.87;;;;;;;21.54;100.00;95861.78;5053430;28;20221;-78
2021/09/18 06:26:14;;;;;;;10.47;5.97;;;;;;;21.62;100.00;95851.78;5054218;28;20201;-78
2021/09/18 06:28:41;;;;;;;10.90;5.90;;;;;;;21.57;100.00;95855.97;5053906;28;20237;-78
2021/09/18 06:31:08;;;;;;;12.03;6.37;;;;;;;21.59;100.00;95853.88;5053822;28;20224;-78
2021/09/18 06:33:37;;;;;;;16.97;7.17;;;;;;;21.73;100.00;95858.94;5053321;28;20193;-79
2021/09/18 06:36:05;;;;;;;13.00;6.60;;;;;;;21.81;100.00;95867.38;5049359;28;20205;-79
2021/09/18 06:38:32;;;;;;;11.30;6.37;;;;;;;22.03;100.00;95866.69;5052908;28;20190;-79
2021/09/18 06:41:00;;;;;;;15.67;5.53;;;;;;;22.22;100.00;95870.03;5053818;28;20190;-79
2021/09/18 06:43:28;;;;;;;13.83;6.67;;;;;;;22.46;100.00;95876.84;5053045;28;20253;-79
2021/09/18 06:45:56;;;;;;;15.67;5.97;;;;;;;22.57;100.00;95880.50;5045581;28;20217;-79
2021/09/18 06:48:24;;;;;;;10.07;5.67;;;;;;;22.64;100.00;95899.09;5042443;28;20279;-78
2021/09/18 06:50:52;;;;;;;8.07;5.20;;;;;;;22.36;100.00;95897.28;5043699;28;20666;-78
2021/09/18 06:53:19;;;;;;;14.30;6.03;;;;;;;22.29;100.00;95889.41;5033508;28;20361;-78
2021/09/18 06:55:47;;;;;;;11.07;5.73;;;;;;;22.31;100.00;95903.38;5033376;28;20205;-79
2021/09/18 06:58:14;;;;;;;9.87;5.53;;;;;;;22.19;100.00;95910.66;5032950;28;20766;-79
2021/09/18 07:00:42;;;;;;;12.13;5.33;;;;;;;22.16;100.00;95929.88;5032742;28;20588;-79
2021/09/18 07:03:09;;;;;;;13.80;4.53;;;;;;;22.19;100.00;95919.50;5032854;28;20203;-78
2021/09/18 07:05:37;;;;;;;16.77;5.17;;;;;;;22.31;100.00;95930.97;5032246;28;20226;-78
2021/09/18 07:08:05;;;;;;;14.87;5.30;;;;;;;22.38;100.00;95930.81;5032706;28;20191;-78
2021/09/18 07:10:33;;;;;;;11.90;5.07;;;;;;;22.34;100.00;95935.00;5033303;28;20206;-78
2021/09/18 07:13:00;;;;;;;18.07;4.83;;;;;;;22.17;100.00;95953.72;5032479;28;20198;-78
2021/09/18 07:15:27;;;;;;;13.10;4.70;;;;;;;22.22;100.00;95937.75;5032910;28;20697;-78
2021/09/18 07:17:54;;;;;;;12.40;4.83;;;;;;;22.28;100.00;95931.44;5032838;28;20198;-78
2021/09/18 07:20:22;;;;;;;16.17;4.43;;;;;;;22.41;100.00;95927.66;5032529;28;20199;-79
2021/09/18 07:22:49;;;;;;;10.50;4.87;;;;;;;22.38;100.00;95930.81;5032457;28;20761;-78
2021/09/18 07:25:18;;;;;;;8.20;5.10;;;;;;;22.34;100.00;95939.56;5030853;28;20226;-78
2021/09/18 07:27:45;;;;;;;9.17;4.73;;;;;;;22.25;100.00;95952.53;5032253;28;20687;-78
2021/09/18 07:30:13;;;;;;;16.83;5.63;;;;;;;22.15;100.00;95955.81;5032737;28;20213;-78
2021/09/18 07:32:40;;;;;;;11.67;5.03;;;;;;;22.14;100.00;95946.16;5032337;28;20203;-78
2021/09/18 07:35:08;;;;;;;12.87;4.27;;;;;;;22.14;100.00;95972.09;5032610;28;20203;-78
2021/09/18 07:37:37;;;;;;;9.53;4.50;;;;;;;21.99;100.00;95959.22;5032540;28;20199;-78
2021/09/18 07:40:05;;;;;;;13.07;5.20;;;;;;;22.06;100.00;95959.88;5032354;28;20205;-78
2021/09/18 07:42:34;;;;;;;13.00;5.20;;;;;;;21.98;100.00;95945.03;5032513;28;20198;-78
2021/09/18 07:45:02;;;;;;;21.47;5.77;;;;;;;22.00;100.00;95942.94;5032417;28;20261;-78
2021/09/18 07:47:29;;;;;;;13.80;5.10;;;;;;;22.05;100.00;95964.44;5032258;28;20202;-78
2021/09/18 07:49:56;;;;;;;15.73;5.43;;;;;;;22.18;100.00;95967.91;5032261;28;20196;-78
2021/09/18 07:52:23;;;;;;;14.40;5.20;;;;;;;22.20;100.00;95982.69;5032078;28;20261;-78
2021/09/18 07:54:51;;;;;;;16.73;5.90;;;;;;;22.13;100.00;95983.84;5032630;28;20183;-78
2021/09/18 07:57:18;;;;;;;16.57;5.93;;;;;;;22.19;100.00;95988.28;5032119;28;20599;-78
2021/09/18 07:59:47;;;;;;;11.93;5.50;;;;;;;22.08;100.00;95973.84;5031881;28;20685;-78
2021/09/18 08:02:14;;;;;;;12.07;5.40;;;;;;;22.04;100.00;95964.69;5032407;28;20281;-78
2021/09/18 08:04:41;;;;;;;15.33;5.93;;;;;;;21.90;100.00;95956.13;5032186;28;20582;-78
2021/09/18 08:07:08;;;;;;;12.97;5.40;;;;;;;21.93;100.00;95946.81;5031565;28;20195;-78
2021/09/18 08:09:35;;;;;;;9.40;4.90;;;;;;;21.71;100.00;95947.44;5049875;28;20205;-79
2021/09/18 08:12:03;;;;;;;9.03;4.87;;;;;;;21.76;100.00;95949.41;5052209;28;20194;-78
2021/09/18 08:14:30;;;;;;;17.10;5.93;;;;;;;21.93;100.00;95949.47;5047054;28;20205;-79
2021/09/18 08:16:58;;;;;;;9.57;4.83;;;;;;;21.94;100.00;95949.22;5032816;28;20203;-79
2021/09/18 08:19:26;;;;;;;13.30;5.47;;;;;;;22.00;100.00;95948.28;5031796;28;20206;-79
2021/09/18 08:21:53;;;;;;;17.00;5.97;;;;;;;22.53;100.00;95940.97;5031637;28;20205;-78
2021/09/18 08:24:20;;;;;;;12.03;5.10;;;;;;;22.90;100.00;95953.91;5031635;28;20222;-78
2021/09/18 08:26:47;;;;;;;8.63;4.90;;;;;;;23.09;100.00;95951.81;5032019;28;20198;-78
2021/09/18 08:29:14;;;;;;;9.57;4.60;;;;;;;22.92;100.00;95954.47;5031455;28;20203;-78
2021/09/18 08:31:41;;;;;;;12.77;5.33;;;;;;;22.67;100.00;95960.22;5031443;28;20416;-78
2021/09/18 08:34:11;;;;;;;9.67;4.63;;;;;;;22.84;100.00;95939.59;5031543;28;20194;-78
2021/09/18 08:36:38;;;;;;;9.93;5.33;;;;;;;22.75;100.00;95935.69;5031651;28;20199;-78
2021/09/18 08:39:05;;;;;;;13.27;4.47;;;;;;;22.65;100.00;95936.34;5031402;28;20252;-78
2021/09/18 08:41:33;;;;;;;11.47;4.87;;;;;;;22.45;100.00;95944.06;5031415;28;20292;-78
2021/09/18 08:44:00;;;;;;;7.70;4.30;;;;;;;22.32;100.00;95945.16;5031630;28;20281;-78
2021/09/18 08:46:30;;;;;;;10.07;5.47;;;;;;;22.38;100.00;95936.16;5031710;28;20205;-78
2021/09/18 08:48:58;;;;;;;10.97;5.00;;;;;;;22.28;100.00;95949.38;5031522;28;20233;-78
2021/09/18 08:51:27;;;;;;;10.03;4.00;;;;;;;22.34;100.00;95935.00;5031692;28;20590;-78
2021/09/18 08:53:55;;;;;;;14.70;5.30;;;;;;;22.32;100.00;95937.13;5031229;28;20292;-78
2021/09/18 08:56:23;;;;;;;12.70;4.20;;;;;;;22.48;100.00;95939.03;5031674;28;20191;-78
2021/09/18 08:58:50;;;;;;;16.03;4.33;;;;;;;22.84;100.00;95949.53;5031751;28;20586;-78
2021/09/18 09:01:19;;;;;;;8.93;4.20;;;;;;;23.77;100.00;95964.06;5031638;28;20235;-79
2021/09/18 09:03:57;;;;;;;7.67;4.60;;;;;;;24.57;100.00;95981.34;5031480;28;20234;-78
2021/09/18 09:06:25;;;;;;;9.00;4.10;;;;;;;24.74;100.00;95988.50;5031656;28;20187;-78
2021/09/18 09:09:00;;;;;;;7.17;3.57;;;;;;;24.74;100.00;95992.00;5031360;28;20199;-78
2021/09/18 09:11:28;;;;;;;7.53;2.70;;;;;;;24.12;100.00;95992.38;5031599;28;20261;-78
2021/09/18 09:13:58;;;;;;;5.23;2.97;;;;;;;24.66;100.00;95997.81;5031313;28;20203;-78
2021/09/18 09:16:27;;;;;;;6.07;3.10;;;;;;;25.06;100.00;95991.19;5031948;28;20203;-78
2021/09/18 09:18:54;;;;;;;8.73;3.47;;;;;;;25.04;100.00;95990.63;5031289;28;20249;-78
2021/09/18 09:21:24;;;;;;;9.97;3.17;;;;;;;24.90;100.00;95993.75;5031422;28;20346;-78
2021/09/18 09:24:11;;;;;;;10.33;3.30;;;;;;;24.64;100.00;95973.09;5031291;28;20681;-79
2021/09/18 09:26:39;;;;;;;5.60;3.00;;;;;;;24.33;100.00;95963.88;5031727;28;20218;-78
2021/09/18 09:29:08;;;;;;;5.13;2.67;;;;;;;24.11;100.00;95963.91;5032109;28;20205;-79
2021/09/18 09:31:37;;;;;;;8.97;2.90;;;;;;;24.20;100.00;95957.81;5035319;28;20209;-78
2021/09/18 09:34:08;;;;;;;4.70;2.90;;;;;;;24.40;100.00;95959.94;5034831;28;20237;-78
2021/09/18 09:36:40;;;;;;;6.90;3.13;;;;;;;24.21;100.00;95966.69;5034954;28;20186;-78
2021/09/18 09:39:11;;;;;;;8.00;3.27;;;;;;;24.24;100.00;95960.00;5034548;28;20289;-78
2021/09/18 09:41:41;;;;;;;6.00;3.00;;;;;;;24.27;100.00;95954.94;5035112;28;20275;-78
2021/09/18 09:44:11;;;;;;;7.43;3.07;;;;;;;24.15;100.00;95949.72;5034650;28;20191;-78
2021/09/18 09:46:39;;;;;;;10.80;3.50;;;;;;;24.32;100.00;95946.97;5034723;28;20205;-78
2021/09/18 09:49:16;;;;;;;4.73;3.00;;;;;;;24.61;100.00;95952.91;5034294;28;20253;-78
2021/09/18 09:51:45;;;;;;;9.20;3.57;;;;;;;25.21;100.00;95944.78;5034772;28;20187;-78
2021/09/18 09:54:19;;;;;;;5.33;2.97;;;;;;;25.84;100.00;95969.94;5034236;28;20238;-79
2021/09/18 09:56:47;;;;;;;6.00;2.70;;;;;;;25.84;100.00;95967.25;5034921;28;20289;-78
2021/09/18 09:59:29;;;;;;;5.40;3.10;;;;;;;25.71;100.00;95973.06;5034420;28;20285;-78
2021/09/18 10:01:56;;;;;;;9.67;3.57;;;;;;;25.47;100.00;95956.53;5034485;28;20248;-79
2021/09/18 10:04:24;;;;;;;7.13;3.20;;;;;;;25.04;100.00;95967.25;5034156;28;20289;-79
2021/09/18 10:06:51;;;;;;;5.40;2.83;;;;;;;24.88;100.00;95952.06;5034323;28;20190;-79
2021/09/18 10:09:21;;;;;;;6.43;3.10;;;;;;;24.64;100.00;95946.22;5034104;28;20632;-79
2021/09/18 10:11:49;;;;;;;9.10;3.13;;;;;;;24.53;100.00;95947.19;5034310;28;20238;-79
2021/09/18 10:14:22;;;;;;;6.07;3.00;;;;;;;24.46;100.00;95941.22;5034113;28;20195;-78
2021/09/18 10:16:53;;;;;;;8.37;3.57;;;;;;;24.40;100.00;95937.66;5033956;28;20190;-79
2021/09/18 10:19:30;;;;;;;7.07;3.23;;;;;;;24.37;100.00;95947.00;5034069;28;20190;-78
2021/09/18 10:24:45;;;;;;;6.33;2.80;;;;;;;24.56;100.00;95936.75;5033987;28;20225;-78
2021/09/18 10:27:19;;;;;;;3.83;3.00;;;;;;;24.83;100.00;95928.63;5033809;28;20195;-78
2021/09/18 10:29:46;;;;;;;4.90;2.37;;;;;;;24.78;100.00;95939.34;5033873;28;20183;-78
2021/09/18 10:32:14;;;;;;;6.13;3.27;;;;;;;24.71;100.00;95928.00;5033915;28;20205;-78
2021/09/18 10:34:42;;;;;;;5.17;3.10;;;;;;;24.54;100.00;95936.19;5033767;28;20663;-79
2021/09/18 10:37:33;;;;;;;9.23;3.10;;;;;;;24.40;100.00;95929.59;5033592;28;20698;-78
2021/09/18 10:40:07;;;;;;;8.07;3.67;;;;;;;24.32;100.00;95922.78;5033705;28;20640;-79
2021/09/18 10:42:36;;;;;;;6.90;3.17;;;;;;;24.21;100.00;95904.94;5033609;28;20195;-78
2021/09/18 10:45:05;;;;;;;11.37;4.50;;;;;;;24.35;100.00;95892.75;5034058;28;20254;-78
2021/09/18 10:47:39;;;;;;;8.40;3.93;;;;;;;24.38;100.00;95888.72;5033449;28;20285;-78
2021/09/18 10:50:28;;;;;;;8.50;4.13;;;;;;;24.28;100.00;95884.09;5033854;28;20226;-78
2021/09/18 10:53:00;;;;;;;11.63;3.90;;;;;;;24.35;100.00;95899.97;5033024;28;20234;-78
2021/09/18 10:55:30;;;;;;;6.80;3.77;;;;;;;24.34;100.00;95885.72;5033551;28;20194;-78
2021/09/18 10:58:07;;;;;;;8.03;4.07;;;;;;;24.22;100.00;95900.41;5033275;28;20255;-78
2021/09/18 11:00:50;;;;;;;10.53;3.50;;;;;;;24.19;100.00;95901.72;5033707;28;20199;-78
2021/09/18 11:03:43;;;;;;;8.60;3.20;;;;;;;24.18;100.00;95887.47;5033544;28;20179;-78
2021/09/18 11:06:30;;;;;;;5.57;3.67;;;;;;;24.18;100.00;95874.06;5032717;28;20702;-79
2021/09/18 11:08:58;;;;;;;8.57;4.03;;;;;;;24.22;100.00;95882.41;5032925;28;20203;-79
2021/09/18 11:11:28;;;;;;;6.00;2.73;;;;;;;24.22;100.00;95879.72;5033427;28;20198;-79
2021/09/18 11:13:57;;;;;;;8.53;3.23;;;;;;;24.28;100.00;95872.50;5037603;28;20205;-79
2021/09/18 11:16:27;;;;;;;4.80;3.13;;;;;;;24.22;100.00;95866.28;5052811;28;20201;-79
2021/09/18 11:18:59;;;;;;;6.00;3.17;;;;;;;24.29;100.00;95863.41;5052751;28;20189;-79
2021/09/18 11:21:28;;;;;;;8.20;3.53;;;;;;;24.35;100.00;95863.19;5052720;28;20958;-79
2021/09/18 11:23:58;;;;;;;8.83;3.20;;;;;;;24.30;100.00;95857.75;5052363;28;20245;-85
2021/09/18 11:26:49;;;;;;;7.63;3.27;;;;;;;24.44;100.00;95860.88;5052591;28;20279;-83
2021/09/18 11:29:29;;;;;;;5.90;2.60;;;;;;;24.50;100.00;95861.72;5048445;28;20220;-83